sensor_id;sensor_type;location;lat;lon;timestamp;temperature;humidity
6110;DHT22;3085;49.444;11.054;2022-10-14T00:02:05;13.10;99.90
6110;DHT22;3085;49.444;11.054;2022-10-14T00:04:32;13.10;99.90
6110;DHT22;3085;49.444;11.054;2022-10-14T00:07:01;13.10;99.90
6110;DHT22;3085;49.444;11.054;2022-10-14T00:09:28;13.10;99.90
6110;DHT22;3085;49.444;11.054;2022-10-14T00:11:54;13.10;99.90
6110;DHT22;3085;49.444;11.054;2022-10-14T00:14:21;13.10;99.90
6110;DHT22;3085;49.444;11.054;2022-10-14T00:16:52;13.10;99.90
6110;DHT22;3085;49.444;11.054;2022-10-14T00:19:20;13.10;99.90
6110;DHT22;3085;49.444;11.054;2022-10-14T00:21:47;13.10;99.90
6110;DHT22;3085;49.444;11.054;2022-10-14T00:24:15;13.10;99.90
6110;DHT22;3085;49.444;11.054;2022-10-14T00:26:43;13.30;99.90
6110;DHT22;3085;49.444;11.054;2022-10-14T00:29:12;13.10;99.90
6110;DHT22;3085;49.444;11.054;2022-10-14T00:31:40;13.10;99.90
6110;DHT22;3085;49.444;11.054;2022-10-14T00:34:07;13.00;99.90
6110;DHT22;3085;49.444;11.054;2022-10-14T00:36:37;13.00;99.90
6110;DHT22;3085;49.444;11.054;2022-10-14T00:39:04;12.90;99.90
6110;DHT22;3085;49.444;11.054;2022-10-14T00:41:34;13.00;99.90
6110;DHT22;3085;49.444;11.054;2022-10-14T00:44:04;13.10;99.90
6110;DHT22;3085;49.444;11.054;2022-10-14T00:46:33;13.00;99.90
6110;DHT22;3085;49.444;11.054;2022-10-14T00:49:04;13.10;99.90
6110;DHT22;3085;49.444;11.054;2022-10-14T00:51:31;13.10;99.90
6110;DHT22;3085;49.444;11.054;2022-10-14T00:53:58;13.20;99.90
6110;DHT22;3085;49.444;11.054;2022-10-14T00:56:27;13.00;99.90
6110;DHT22;3085;49.444;11.054;2022-10-14T00:58:56;13.10;99.90
6110;DHT22;3085;49.444;11.054;2022-10-14T01:01:23;13.00;99.90
6110;DHT22;3085;49.444;11.054;2022-10-14T01:03:51;13.00;99.90
6110;DHT22;3085;49.444;11.054;2022-10-14T01:06:28;13.30;99.90
6110;DHT22;3085;49.444;11.054;2022-10-14T01:09:01;13.00;99.90
6110;DHT22;3085;49.444;11.054;2022-10-14T01:11:33;13.10;99.90
6110;DHT22;3085;49.444;11.054;2022-10-14T01:14:10;13.10;99.90
6110;DHT22;3085;49.444;11.054;2022-10-14T01:16:48;13.20;99.90
6110;DHT22;3085;49.444;11.054;2022-10-14T01:19:42;13.20;99.90
6110;DHT22;3085;49.444;11.054;2022-10-14T01:22:20;13.20;99.90
6110;DHT22;3085;49.444;11.054;2022-10-14T01:24:59;13.20;99.90
6110;DHT22;3085;49.444;11.054;2022-10-14T01:27:47;13.10;99.90
6110;DHT22;3085;49.444;11.054;2022-10-14T01:30:23;13.10;99.90
6110;DHT22;3085;49.444;11.054;2022-10-14T01:33:06;13.00;99.90
6110;DHT22;3085;49.444;11.054;2022-10-14T01:35:55;13.10;99.90
6110;DHT22;3085;49.444;11.054;2022-10-14T01:38:27;13.20;99.90
6110;DHT22;3085;49.444;11.054;2022-10-14T01:40:58;13.20;99.90
6110;DHT22;3085;49.444;11.054;2022-10-14T01:43:30;13.20;99.90
6110;DHT22;3085;49.444;11.054;2022-10-14T01:46:01;13.20;99.90
6110;DHT22;3085;49.444;11.054;2022-10-14T01:48:32;13.10;99.90
6110;DHT22;3085;49.444;11.054;2022-10-14T01:51:05;13.00;99.90
6110;DHT22;3085;49.444;11.054;2022-10-14T01:53:35;13.00;99.90
6110;DHT22;3085;49.444;11.054;2022-10-14T01:56:05;13.00;99.90
6110;DHT22;3085;49.444;11.054;2022-10-14T01:58:33;12.90;99.90
6110;DHT22;3085;49.444;11.054;2022-10-14T02:01:04;12.80;99.90
6110;DHT22;3085;49.444;11.054;2022-10-14T02:03:39;12.80;99.90
6110;DHT22;3085;49.444;11.054;2022-10-14T02:06:10;12.70;99.90
6110;DHT22;3085;49.444;11.054;2022-10-14T02:08:49;12.70;99.90
6110;DHT22;3085;49.444;11.054;2022-10-14T02:11:19;12.80;99.90
6110;DHT22;3085;49.444;11.054;2022-10-14T02:13:55;12.80;99.90
6110;DHT22;3085;49.444;11.054;2022-10-14T02:16:33;12.80;99.90
6110;DHT22;3085;49.444;11.054;2022-10-14T02:19:09;12.80;99.90
6110;DHT22;3085;49.444;11.054;2022-10-14T02:21:41;12.80;99.90
6110;DHT22;3085;49.444;11.054;2022-10-14T02:24:13;12.80;99.90
6110;DHT22;3085;49.444;11.054;2022-10-14T02:26:46;12.80;99.90
6110;DHT22;3085;49.444;11.054;2022-10-14T02:29:13;12.80;99.90
6110;DHT22;3085;49.444;11.054;2022-10-14T02:31:42;12.80;99.90
6110;DHT22;3085;49.444;11.054;2022-10-14T02:34:11;12.80;99.90
6110;DHT22;3085;49.444;11.054;2022-10-14T02:36:41;12.90;99.90
6110;DHT22;3085;49.444;11.054;2022-10-14T02:39:11;13.00;99.90
6110;DHT22;3085;49.444;11.054;2022-10-14T02:41:38;13.00;99.90
6110;DHT22;3085;49.444;11.054;2022-10-14T02:44:05;12.90;99.90
6110;DHT22;3085;49.444;11.054;2022-10-14T02:46:33;13.00;99.90
6110;DHT22;3085;49.444;11.054;2022-10-14T02:49:01;13.00;99.90
6110;DHT22;3085;49.444;11.054;2022-10-14T02:51:29;13.00;99.90
6110;DHT22;3085;49.444;11.054;2022-10-14T02:53:56;13.10;99.90
6110;DHT22;3085;49.444;11.054;2022-10-14T02:56:23;13.00;99.90
6110;DHT22;3085;49.444;11.054;2022-10-14T02:58:50;13.10;99.90
6110;DHT22;3085;49.444;11.054;2022-10-14T03:01:16;13.10;99.90
6110;DHT22;3085;49.444;11.054;2022-10-14T03:03:43;13.00;99.90
6110;DHT22;3085;49.444;11.054;2022-10-14T03:06:11;12.90;99.90
6110;DHT22;3085;49.444;11.054;2022-10-14T03:08:38;12.90;99.90
6110;DHT22;3085;49.444;11.054;2022-10-14T03:11:05;12.80;99.90
6110;DHT22;3085;49.444;11.054;2022-10-14T03:13:32;12.80;99.90
6110;DHT22;3085;49.444;11.054;2022-10-14T03:15:59;12.90;99.90
6110;DHT22;3085;49.444;11.054;2022-10-14T03:18:26;12.90;99.90
6110;DHT22;3085;49.444;11.054;2022-10-14T03:20:53;12.90;99.90
6110;DHT22;3085;49.444;11.054;2022-10-14T03:23:21;12.90;99.90
6110;DHT22;3085;49.444;11.054;2022-10-14T03:25:48;12.60;99.90
6110;DHT22;3085;49.444;11.054;2022-10-14T03:28:15;12.90;99.90
6110;DHT22;3085;49.444;11.054;2022-10-14T03:30:42;12.90;99.90
6110;DHT22;3085;49.444;11.054;2022-10-14T03:33:08;12.80;99.90
6110;DHT22;3085;49.444;11.054;2022-10-14T03:35:35;12.70;99.90
6110;DHT22;3085;49.444;11.054;2022-10-14T03:38:02;12.60;99.90
6110;DHT22;3085;49.444;11.054;2022-10-14T03:40:32;12.70;99.90
6110;DHT22;3085;49.444;11.054;2022-10-14T03:42:59;12.70;99.90
6110;DHT22;3085;49.444;11.054;2022-10-14T03:45:26;12.60;99.90
6110;DHT22;3085;49.444;11.054;2022-10-14T03:47:54;12.70;99.90
6110;DHT22;3085;49.444;11.054;2022-10-14T03:50:20;12.60;99.90
6110;DHT22;3085;49.444;11.054;2022-10-14T03:52:47;12.60;99.90
6110;DHT22;3085;49.444;11.054;2022-10-14T03:55:14;12.60;99.90
6110;DHT22;3085;49.444;11.054;2022-10-14T03:57:42;12.70;99.90
6110;DHT22;3085;49.444;11.054;2022-10-14T04:00:10;12.70;99.90
6110;DHT22;3085;49.444;11.054;2022-10-14T04:02:38;12.70;99.90
6110;DHT22;3085;49.444;11.054;2022-10-14T04:05:05;12.70;99.90
6110;DHT22;3085;49.444;11.054;2022-10-14T04:07:32;12.80;99.90
6110;DHT22;3085;49.444;11.054;2022-10-14T04:09:59;12.80;99.90
6110;DHT22;3085;49.444;11.054;2022-10-14T04:12:26;12.70;99.90
6110;DHT22;3085;49.444;11.054;2022-10-14T04:14:54;12.70;99.90
6110;DHT22;3085;49.444;11.054;2022-10-14T04:19:50;12.70;99.90
6110;DHT22;3085;49.444;11.054;2022-10-14T04:22:17;12.60;99.90
6110;DHT22;3085;49.444;11.054;2022-10-14T04:24:44;12.60;99.90
6110;DHT22;3085;49.444;11.054;2022-10-14T04:27:11;12.60;99.90
6110;DHT22;3085;49.444;11.054;2022-10-14T04:29:38;12.70;99.90
6110;DHT22;3085;49.444;11.054;2022-10-14T04:32:06;12.70;99.90
6110;DHT22;3085;49.444;11.054;2022-10-14T04:34:33;12.70;99.90
6110;DHT22;3085;49.444;11.054;2022-10-14T04:37:00;12.70;99.90
6110;DHT22;3085;49.444;11.054;2022-10-14T04:39:27;12.70;99.90
6110;DHT22;3085;49.444;11.054;2022-10-14T04:41:53;12.70;99.90
6110;DHT22;3085;49.444;11.054;2022-10-14T04:44:21;12.70;99.90
6110;DHT22;3085;49.444;11.054;2022-10-14T04:46:48;12.80;99.90
6110;DHT22;3085;49.444;11.054;2022-10-14T04:49:16;12.70;99.90
6110;DHT22;3085;49.444;11.054;2022-10-14T04:51:43;12.80;99.90
6110;DHT22;3085;49.444;11.054;2022-10-14T04:54:10;12.80;99.90
6110;DHT22;3085;49.444;11.054;2022-10-14T04:56:37;12.80;99.90
6110;DHT22;3085;49.444;11.054;2022-10-14T04:59:04;12.80;99.90
6110;DHT22;3085;49.444;11.054;2022-10-14T05:01:31;12.80;99.90
6110;DHT22;3085;49.444;11.054;2022-10-14T05:03:58;12.80;99.90
6110;DHT22;3085;49.444;11.054;2022-10-14T05:06:26;12.80;99.90
6110;DHT22;3085;49.444;11.054;2022-10-14T05:08:53;12.80;99.90
6110;DHT22;3085;49.444;11.054;2022-10-14T05:11:20;12.80;99.90
6110;DHT22;3085;49.444;11.054;2022-10-14T05:13:47;12.80;99.90
6110;DHT22;3085;49.444;11.054;2022-10-14T05:16:14;12.80;99.90
6110;DHT22;3085;49.444;11.054;2022-10-14T05:18:40;12.80;99.90
6110;DHT22;3085;49.444;11.054;2022-10-14T05:21:07;12.80;99.90
6110;DHT22;3085;49.444;11.054;2022-10-14T05:23:35;12.80;99.90
6110;DHT22;3085;49.444;11.054;2022-10-14T05:26:03;12.80;99.90
6110;DHT22;3085;49.444;11.054;2022-10-14T05:28:29;12.80;99.90
6110;DHT22;3085;49.444;11.054;2022-10-14T05:30:56;12.70;99.90
6110;DHT22;3085;49.444;11.054;2022-10-14T05:33:23;12.70;99.90
6110;DHT22;3085;49.444;11.054;2022-10-14T05:35:50;12.70;99.90
6110;DHT22;3085;49.444;11.054;2022-10-14T05:38:17;12.70;99.90
6110;DHT22;3085;49.444;11.054;2022-10-14T05:40:51;12.70;99.90
6110;DHT22;3085;49.444;11.054;2022-10-14T05:43:19;12.90;99.90
6110;DHT22;3085;49.444;11.054;2022-10-14T05:45:45;12.80;99.90
6110;DHT22;3085;49.444;11.054;2022-10-14T05:48:12;12.70;99.90
6110;DHT22;3085;49.444;11.054;2022-10-14T05:50:41;12.80;99.90
6110;DHT22;3085;49.444;11.054;2022-10-14T05:53:08;12.70;99.90
6110;DHT22;3085;49.444;11.054;2022-10-14T05:55:36;12.80;99.90
6110;DHT22;3085;49.444;11.054;2022-10-14T05:58:04;12.80;99.90
6110;DHT22;3085;49.444;11.054;2022-10-14T06:00:31;12.80;99.90
6110;DHT22;3085;49.444;11.054;2022-10-14T06:02:58;12.80;99.90
6110;DHT22;3085;49.444;11.054;2022-10-14T06:05:25;12.80;99.90
6110;DHT22;3085;49.444;11.054;2022-10-14T06:07:52;12.80;99.90
6110;DHT22;3085;49.444;11.054;2022-10-14T06:10:18;12.80;99.90
6110;DHT22;3085;49.444;11.054;2022-10-14T06:12:45;12.80;99.90
6110;DHT22;3085;49.444;11.054;2022-10-14T06:15:13;12.80;99.90
6110;DHT22;3085;49.444;11.054;2022-10-14T06:17:40;12.90;99.90
6110;DHT22;3085;49.444;11.054;2022-10-14T06:20:08;12.90;99.90
6110;DHT22;3085;49.444;11.054;2022-10-14T06:22:34;13.00;99.90
6110;DHT22;3085;49.444;11.054;2022-10-14T06:25:01;13.00;99.90
6110;DHT22;3085;49.444;11.054;2022-10-14T06:27:28;13.00;99.90
6110;DHT22;3085;49.444;11.054;2022-10-14T06:29:55;13.00;99.90
6110;DHT22;3085;49.444;11.054;2022-10-14T06:32:23;13.00;99.90
6110;DHT22;3085;49.444;11.054;2022-10-14T06:34:50;13.00;99.90
6110;DHT22;3085;49.444;11.054;2022-10-14T06:37:17;13.00;99.90
6110;DHT22;3085;49.444;11.054;2022-10-14T06:39:43;13.10;99.90
6110;DHT22;3085;49.444;11.054;2022-10-14T06:42:10;13.00;99.90
6110;DHT22;3085;49.444;11.054;2022-10-14T06:44:37;13.10;99.90
6110;DHT22;3085;49.444;11.054;2022-10-14T06:47:05;13.10;99.90
6110;DHT22;3085;49.444;11.054;2022-10-14T06:49:33;13.10;99.90
6110;DHT22;3085;49.444;11.054;2022-10-14T06:52:00;13.20;99.90
6110;DHT22;3085;49.444;11.054;2022-10-14T06:54:27;13.10;99.90
6110;DHT22;3085;49.444;11.054;2022-10-14T06:56:54;13.10;99.90
6110;DHT22;3085;49.444;11.054;2022-10-14T06:59:21;13.10;99.90
6110;DHT22;3085;49.444;11.054;2022-10-14T07:01:48;13.20;99.90
6110;DHT22;3085;49.444;11.054;2022-10-14T07:04:14;13.20;99.90
6110;DHT22;3085;49.444;11.054;2022-10-14T07:06:43;13.20;99.90
6110;DHT22;3085;49.444;11.054;2022-10-14T07:09:09;13.30;99.90
6110;DHT22;3085;49.444;11.054;2022-10-14T07:11:36;13.30;99.90
6110;DHT22;3085;49.444;11.054;2022-10-14T07:14:03;13.30;99.90
6110;DHT22;3085;49.444;11.054;2022-10-14T07:16:30;13.40;99.90
6110;DHT22;3085;49.444;11.054;2022-10-14T07:18:57;13.30;99.90
6110;DHT22;3085;49.444;11.054;2022-10-14T07:21:24;13.40;99.90
6110;DHT22;3085;49.444;11.054;2022-10-14T07:23:52;13.40;99.90
6110;DHT22;3085;49.444;11.054;2022-10-14T07:26:20;13.50;99.90
6110;DHT22;3085;49.444;11.054;2022-10-14T07:28:47;13.50;99.90
6110;DHT22;3085;49.444;11.054;2022-10-14T07:31:13;13.60;99.90
6110;DHT22;3085;49.444;11.054;2022-10-14T07:33:40;13.70;99.90
6110;DHT22;3085;49.444;11.054;2022-10-14T07:36:14;13.70;99.90
6110;DHT22;3085;49.444;11.054;2022-10-14T07:38:42;13.70;99.90
6110;DHT22;3085;49.444;11.054;2022-10-14T07:41:15;13.70;99.90
6110;DHT22;3085;49.444;11.054;2022-10-14T07:43:43;13.70;99.90
6110;DHT22;3085;49.444;11.054;2022-10-14T07:46:10;13.70;99.90
6110;DHT22;3085;49.444;11.054;2022-10-14T07:48:38;13.70;99.90
6110;DHT22;3085;49.444;11.054;2022-10-14T07:51:05;13.70;99.90
6110;DHT22;3085;49.444;11.054;2022-10-14T07:53:33;13.70;99.90
6110;DHT22;3085;49.444;11.054;2022-10-14T07:56:00;13.70;99.90
6110;DHT22;3085;49.444;11.054;2022-10-14T07:58:30;13.70;99.90
6110;DHT22;3085;49.444;11.054;2022-10-14T08:00:57;13.70;99.90
6110;DHT22;3085;49.444;11.054;2022-10-14T08:03:25;13.50;99.90
6110;DHT22;3085;49.444;11.054;2022-10-14T08:05:57;13.70;99.90
6110;DHT22;3085;49.444;11.054;2022-10-14T08:08:24;13.80;99.90
6110;DHT22;3085;49.444;11.054;2022-10-14T08:10:59;13.80;99.90
6110;DHT22;3085;49.444;11.054;2022-10-14T08:13:26;13.80;99.90
6110;DHT22;3085;49.444;11.054;2022-10-14T08:15:55;13.90;99.90
6110;DHT22;3085;49.444;11.054;2022-10-14T08:18:22;13.90;99.90
6110;DHT22;3085;49.444;11.054;2022-10-14T08:20:50;13.90;99.90
6110;DHT22;3085;49.444;11.054;2022-10-14T08:23:17;13.90;99.90
6110;DHT22;3085;49.444;11.054;2022-10-14T08:25:46;13.90;99.90
6110;DHT22;3085;49.444;11.054;2022-10-14T08:28:13;13.90;99.90
6110;DHT22;3085;49.444;11.054;2022-10-14T08:30:40;13.90;99.90
6110;DHT22;3085;49.444;11.054;2022-10-14T08:33:08;13.90;99.90
6110;DHT22;3085;49.444;11.054;2022-10-14T08:35:37;14.10;99.90
6110;DHT22;3085;49.444;11.054;2022-10-14T08:38:04;14.00;99.90
6110;DHT22;3085;49.444;11.054;2022-10-14T08:40:45;14.00;99.90
6110;DHT22;3085;49.444;11.054;2022-10-14T08:43:20;14.00;99.90
6110;DHT22;3085;49.444;11.054;2022-10-14T08:45:50;14.10;99.90
6110;DHT22;3085;49.444;11.054;2022-10-14T08:48:24;14.10;99.90
6110;DHT22;3085;49.444;11.054;2022-10-14T08:50:55;14.10;99.90
6110;DHT22;3085;49.444;11.054;2022-10-14T08:53:29;14.20;99.90
6110;DHT22;3085;49.444;11.054;2022-10-14T08:55:59;14.30;99.90
6110;DHT22;3085;49.444;11.054;2022-10-14T08:58:30;14.40;99.90
6110;DHT22;3085;49.444;11.054;2022-10-14T09:01:04;14.40;99.90
6110;DHT22;3085;49.444;11.054;2022-10-14T09:03:38;14.50;99.90
6110;DHT22;3085;49.444;11.054;2022-10-14T09:06:06;14.60;99.90
6110;DHT22;3085;49.444;11.054;2022-10-14T09:08:40;14.70;99.90
6110;DHT22;3085;49.444;11.054;2022-10-14T09:11:12;14.80;99.90
6110;DHT22;3085;49.444;11.054;2022-10-14T09:13:41;14.90;99.90
6110;DHT22;3085;49.444;11.054;2022-10-14T09:16:14;15.10;99.90
6110;DHT22;3085;49.444;11.054;2022-10-14T09:18:47;15.00;99.90
6110;DHT22;3085;49.444;11.054;2022-10-14T09:21:26;15.10;99.90
6110;DHT22;3085;49.444;11.054;2022-10-14T09:23:57;15.20;99.90
6110;DHT22;3085;49.444;11.054;2022-10-14T09:26:28;15.20;99.90
6110;DHT22;3085;49.444;11.054;2022-10-14T09:29:01;15.20;99.90
6110;DHT22;3085;49.444;11.054;2022-10-14T09:31:28;15.30;99.90
6110;DHT22;3085;49.444;11.054;2022-10-14T09:33:56;15.30;99.90
6110;DHT22;3085;49.444;11.054;2022-10-14T09:36:23;15.40;99.90
6110;DHT22;3085;49.444;11.054;2022-10-14T09:38:51;15.50;99.90
6110;DHT22;3085;49.444;11.054;2022-10-14T09:41:24;15.60;99.90
6110;DHT22;3085;49.444;11.054;2022-10-14T09:44:16;15.60;99.90
6110;DHT22;3085;49.444;11.054;2022-10-14T09:46:51;15.60;99.90
6110;DHT22;3085;49.444;11.054;2022-10-14T09:49:32;15.70;99.90
6110;DHT22;3085;49.444;11.054;2022-10-14T09:51:59;15.70;99.90
6110;DHT22;3085;49.444;11.054;2022-10-14T09:54:29;15.70;99.90
6110;DHT22;3085;49.444;11.054;2022-10-14T09:57:03;15.60;99.90
6110;DHT22;3085;49.444;11.054;2022-10-14T09:59:32;15.70;99.90
6110;DHT22;3085;49.444;11.054;2022-10-14T10:02:01;15.80;99.90
6110;DHT22;3085;49.444;11.054;2022-10-14T10:04:40;15.60;99.90
6110;DHT22;3085;49.444;11.054;2022-10-14T10:07:24;15.70;99.90
6110;DHT22;3085;49.444;11.054;2022-10-14T10:09:54;15.80;99.90
6110;DHT22;3085;49.444;11.054;2022-10-14T10:12:23;15.80;99.90
6110;DHT22;3085;49.444;11.054;2022-10-14T10:14:57;15.80;99.90
6110;DHT22;3085;49.444;11.054;2022-10-14T10:17:37;15.90;99.90
6110;DHT22;3085;49.444;11.054;2022-10-14T10:20:20;15.90;99.90
6110;DHT22;3085;49.444;11.054;2022-10-14T10:22:53;16.10;99.90
6110;DHT22;3085;49.444;11.054;2022-10-14T10:25:23;16.10;99.90
6110;DHT22;3085;49.444;11.054;2022-10-14T10:27:52;16.30;99.90
6110;DHT22;3085;49.444;11.054;2022-10-14T10:30:22;16.30;99.90
6110;DHT22;3085;49.444;11.054;2022-10-14T10:33:08;16.40;99.90
6110;DHT22;3085;49.444;11.054;2022-10-14T10:35:59;16.50;99.90
6110;DHT22;3085;49.444;11.054;2022-10-14T10:38:32;16.50;99.90
6110;DHT22;3085;49.444;11.054;2022-10-14T10:41:12;16.60;99.90
6110;DHT22;3085;49.444;11.054;2022-10-14T10:43:56;16.60;99.90
6110;DHT22;3085;49.444;11.054;2022-10-14T10:46:35;16.70;99.90
6110;DHT22;3085;49.444;11.054;2022-10-14T10:49:12;16.70;99.90
6110;DHT22;3085;49.444;11.054;2022-10-14T10:51:50;16.60;99.90
6110;DHT22;3085;49.444;11.054;2022-10-14T10:54:28;16.60;99.90
6110;DHT22;3085;49.444;11.054;2022-10-14T10:57:01;16.50;99.90
6110;DHT22;3085;49.444;11.054;2022-10-14T10:59:49;16.60;99.90
6110;DHT22;3085;49.444;11.054;2022-10-14T11:02:50;16.60;99.90
6110;DHT22;3085;49.444;11.054;2022-10-14T11:05:27;16.70;99.90
6110;DHT22;3085;49.444;11.054;2022-10-14T11:07:58;16.80;99.90
6110;DHT22;3085;49.444;11.054;2022-10-14T11:10:51;16.80;99.90
6110;DHT22;3085;49.444;11.054;2022-10-14T11:13:45;16.80;99.90
6110;DHT22;3085;49.444;11.054;2022-10-14T11:16:18;16.90;99.90
6110;DHT22;3085;49.444;11.054;2022-10-14T11:18:49;16.90;99.90
6110;DHT22;3085;49.444;11.054;2022-10-14T11:21:23;16.90;99.90
6110;DHT22;3085;49.444;11.054;2022-10-14T11:24:01;17.00;99.90
6110;DHT22;3085;49.444;11.054;2022-10-14T11:26:43;17.00;99.90
6110;DHT22;3085;49.444;11.054;2022-10-14T11:32:08;16.90;99.90
6110;DHT22;3085;49.444;11.054;2022-10-14T11:34:49;16.80;99.90
6110;DHT22;3085;49.444;11.054;2022-10-14T11:37:27;16.90;99.90
6110;DHT22;3085;49.444;11.054;2022-10-14T11:39:57;16.90;99.90
6110;DHT22;3085;49.444;11.054;2022-10-14T11:42:36;16.90;99.90
6110;DHT22;3085;49.444;11.054;2022-10-14T11:45:23;17.00;99.90
6110;DHT22;3085;49.444;11.054;2022-10-14T11:48:03;16.90;99.90
6110;DHT22;3085;49.444;11.054;2022-10-14T11:50:36;16.90;99.90
6110;DHT22;3085;49.444;11.054;2022-10-14T11:53:11;16.90;99.90
6110;DHT22;3085;49.444;11.054;2022-10-14T11:55:45;16.90;99.90
6110;DHT22;3085;49.444;11.054;2022-10-14T11:58:17;16.90;99.90
6110;DHT22;3085;49.444;11.054;2022-10-14T12:00:56;16.90;99.90
6110;DHT22;3085;49.444;11.054;2022-10-14T12:03:41;16.90;99.90
6110;DHT22;3085;49.444;11.054;2022-10-14T12:06:13;16.90;99.90
6110;DHT22;3085;49.444;11.054;2022-10-14T12:08:46;17.00;99.90
6110;DHT22;3085;49.444;11.054;2022-10-14T12:11:26;17.00;99.90
6110;DHT22;3085;49.444;11.054;2022-10-14T12:14:01;17.00;99.90
6110;DHT22;3085;49.444;11.054;2022-10-14T12:16:30;17.10;99.90
6110;DHT22;3085;49.444;11.054;2022-10-14T12:18:58;17.00;99.90
6110;DHT22;3085;49.444;11.054;2022-10-14T12:21:30;17.00;99.90
6110;DHT22;3085;49.444;11.054;2022-10-14T12:24:03;17.00;99.90
6110;DHT22;3085;49.444;11.054;2022-10-14T12:26:46;17.00;99.90
6110;DHT22;3085;49.444;11.054;2022-10-14T12:29:17;17.00;99.90
6110;DHT22;3085;49.444;11.054;2022-10-14T12:31:48;17.10;99.90
6110;DHT22;3085;49.444;11.054;2022-10-14T12:34:34;17.10;99.90
6110;DHT22;3085;49.444;11.054;2022-10-14T12:40:30;17.00;99.90
6110;DHT22;3085;49.444;11.054;2022-10-14T12:43:04;17.10;99.90
6110;DHT22;3085;49.444;11.054;2022-10-14T12:45:47;17.10;99.90
6110;DHT22;3085;49.444;11.054;2022-10-14T12:48:16;17.10;99.90
6110;DHT22;3085;49.444;11.054;2022-10-14T12:50:47;17.10;99.90
6110;DHT22;3085;49.444;11.054;2022-10-14T12:53:22;17.00;99.90
6110;DHT22;3085;49.444;11.054;2022-10-14T12:55:51;17.00;99.90
6110;DHT22;3085;49.444;11.054;2022-10-14T12:58:32;17.00;99.90
6110;DHT22;3085;49.444;11.054;2022-10-14T13:01:03;17.00;99.90
6110;DHT22;3085;49.444;11.054;2022-10-14T13:03:33;17.00;99.90
6110;DHT22;3085;49.444;11.054;2022-10-14T13:06:27;17.00;99.90
6110;DHT22;3085;49.444;11.054;2022-10-14T13:18:35;16.90;99.90
6110;DHT22;3085;49.444;11.054;2022-10-14T13:21:03;16.90;99.90
6110;DHT22;3085;49.444;11.054;2022-10-14T13:23:36;17.00;99.90
6110;DHT22;3085;49.444;11.054;2022-10-14T13:26:17;16.90;99.90
6110;DHT22;3085;49.444;11.054;2022-10-14T13:28:58;16.90;99.90
6110;DHT22;3085;49.444;11.054;2022-10-14T13:31:36;17.00;99.90
6110;DHT22;3085;49.444;11.054;2022-10-14T13:34:15;17.00;99.90
6110;DHT22;3085;49.444;11.054;2022-10-14T13:36:55;17.00;99.90
6110;DHT22;3085;49.444;11.054;2022-10-14T13:39:23;16.90;99.90
6110;DHT22;3085;49.444;11.054;2022-10-14T13:41:50;16.90;99.90
6110;DHT22;3085;49.444;11.054;2022-10-14T13:44:18;16.90;99.90
6110;DHT22;3085;49.444;11.054;2022-10-14T13:46:47;16.90;99.90
6110;DHT22;3085;49.444;11.054;2022-10-14T13:49:19;16.90;99.90
6110;DHT22;3085;49.444;11.054;2022-10-14T13:51:49;17.00;99.90
6110;DHT22;3085;49.444;11.054;2022-10-14T13:54:19;17.10;99.90
6110;DHT22;3085;49.444;11.054;2022-10-14T13:56:58;17.20;99.90
6110;DHT22;3085;49.444;11.054;2022-10-14T13:59:26;17.30;99.90
6110;DHT22;3085;49.444;11.054;2022-10-14T14:01:54;17.40;99.90
6110;DHT22;3085;49.444;11.054;2022-10-14T14:04:25;17.50;99.90
6110;DHT22;3085;49.444;11.054;2022-10-14T14:06:53;17.50;99.90
6110;DHT22;3085;49.444;11.054;2022-10-14T14:09:22;17.50;99.90
6110;DHT22;3085;49.444;11.054;2022-10-14T14:11:52;17.50;99.90
6110;DHT22;3085;49.444;11.054;2022-10-14T14:14:22;17.40;99.90
6110;DHT22;3085;49.444;11.054;2022-10-14T14:16:53;17.40;99.90
6110;DHT22;3085;49.444;11.054;2022-10-14T14:19:23;17.40;99.90
6110;DHT22;3085;49.444;11.054;2022-10-14T14:22:04;17.40;99.90
6110;DHT22;3085;49.444;11.054;2022-10-14T14:24:31;17.30;99.90
6110;DHT22;3085;49.444;11.054;2022-10-14T14:26:59;17.30;99.90
6110;DHT22;3085;49.444;11.054;2022-10-14T14:29:27;17.20;99.90
6110;DHT22;3085;49.444;11.054;2022-10-14T14:31:56;17.20;99.90
6110;DHT22;3085;49.444;11.054;2022-10-14T14:34:24;17.20;99.90
6110;DHT22;3085;49.444;11.054;2022-10-14T14:36:52;17.20;99.90
6110;DHT22;3085;49.444;11.054;2022-10-14T14:39:21;17.10;99.90
6110;DHT22;3085;49.444;11.054;2022-10-14T14:41:50;17.20;99.90
6110;DHT22;3085;49.444;11.054;2022-10-14T14:44:20;17.10;99.90
6110;DHT22;3085;49.444;11.054;2022-10-14T14:46:49;17.10;99.90
6110;DHT22;3085;49.444;11.054;2022-10-14T14:49:21;17.10;99.90
6110;DHT22;3085;49.444;11.054;2022-10-14T14:51:52;17.10;99.90
6110;DHT22;3085;49.444;11.054;2022-10-14T14:54:21;17.00;99.90
6110;DHT22;3085;49.444;11.054;2022-10-14T14:56:49;17.00;99.90
6110;DHT22;3085;49.444;11.054;2022-10-14T14:59:22;17.00;99.90
6110;DHT22;3085;49.444;11.054;2022-10-14T15:01:54;16.90;99.90
6110;DHT22;3085;49.444;11.054;2022-10-14T15:04:24;16.90;99.90
6110;DHT22;3085;49.444;11.054;2022-10-14T15:06:57;16.90;99.90
6110;DHT22;3085;49.444;11.054;2022-10-14T15:09:33;16.90;99.90
6110;DHT22;3085;49.444;11.054;2022-10-14T15:12:10;16.90;99.90
6110;DHT22;3085;49.444;11.054;2022-10-14T15:14:44;16.90;99.90
6110;DHT22;3085;49.444;11.054;2022-10-14T15:17:23;16.90;99.90
6110;DHT22;3085;49.444;11.054;2022-10-14T15:19:51;16.90;99.90
6110;DHT22;3085;49.444;11.054;2022-10-14T15:22:29;16.90;99.90
6110;DHT22;3085;49.444;11.054;2022-10-14T15:24:58;16.90;99.90
6110;DHT22;3085;49.444;11.054;2022-10-14T15:27:41;16.90;99.90
6110;DHT22;3085;49.444;11.054;2022-10-14T15:30:25;16.90;99.90
6110;DHT22;3085;49.444;11.054;2022-10-14T15:33:03;16.80;99.90
6110;DHT22;3085;49.444;11.054;2022-10-14T15:35:31;16.80;99.90
6110;DHT22;3085;49.444;11.054;2022-10-14T15:38:01;16.80;99.90
6110;DHT22;3085;49.444;11.054;2022-10-14T15:40:30;16.90;99.90
6110;DHT22;3085;49.444;11.054;2022-10-14T15:42:58;16.80;99.90
6110;DHT22;3085;49.444;11.054;2022-10-14T15:45:25;16.80;99.90
6110;DHT22;3085;49.444;11.054;2022-10-14T15:47:54;16.80;99.90
6110;DHT22;3085;49.444;11.054;2022-10-14T15:50:22;16.70;99.90
6110;DHT22;3085;49.444;11.054;2022-10-14T15:52:50;16.70;99.90
6110;DHT22;3085;49.444;11.054;2022-10-14T15:55:21;16.70;99.90
6110;DHT22;3085;49.444;11.054;2022-10-14T15:57:49;16.60;99.90
6110;DHT22;3085;49.444;11.054;2022-10-14T16:00:17;16.70;99.90
6110;DHT22;3085;49.444;11.054;2022-10-14T16:02:45;16.70;99.90
6110;DHT22;3085;49.444;11.054;2022-10-14T16:05:12;16.70;99.90
6110;DHT22;3085;49.444;11.054;2022-10-14T16:07:40;16.70;99.90
6110;DHT22;3085;49.444;11.054;2022-10-14T16:10:10;16.70;99.90
6110;DHT22;3085;49.444;11.054;2022-10-14T16:12:40;16.60;99.90
6110;DHT22;3085;49.444;11.054;2022-10-14T16:15:26;16.60;99.90
6110;DHT22;3085;49.444;11.054;2022-10-14T16:17:54;16.60;99.90
6110;DHT22;3085;49.444;11.054;2022-10-14T16:20:21;16.60;99.90
6110;DHT22;3085;49.444;11.054;2022-10-14T16:22:48;16.60;99.90
6110;DHT22;3085;49.444;11.054;2022-10-14T16:25:20;16.60;99.90
6110;DHT22;3085;49.444;11.054;2022-10-14T16:27:49;16.60;99.90